Time;durP1;ratioP1;P1;durP2;ratioP2;P2;SDS_P1;SDS_P2;PMS_P1;PMS_P2;Temp;Humidity;BMP_temperature;BMP_pressure;BME280_temperature;BME280_humidity;BME280_pressure;Samples;Min_cycle;Max_cycle;Signal;HPM_P1;HPM_P2
2022/09/29 00:01:50;;;;;;;1.25;1.15;;;;;;;9.40;91.19;99982.78;5077499;28;20025;-78
2022/09/29 00:04:16;;;;;;;1.20;1.17;;;;;;;9.40;90.98;99976.69;5059335;28;20040;-78
2022/09/29 00:06:42;;;;;;;1.42;1.30;;;;;;;9.39;90.66;99981.09;5026854;28;20032;-78
2022/09/29 00:09:07;;;;;;;1.10;1.10;;;;;;;9.38;90.68;99976.75;5059520;28;20182;-78
2022/09/29 00:11:33;;;;;;;1.00;1.00;;;;;;;9.37;91.00;99980.31;5038701;28;20040;-78
2022/09/29 00:13:58;;;;;;;1.02;0.93;;;;;;;9.36;90.85;99986.44;5039533;28;20029;-78
2022/09/29 00:16:24;;;;;;;1.27;1.17;;;;;;;9.35;90.70;99981.28;5055464;28;20324;-78
2022/09/29 00:18:53;;;;;;;1.40;1.10;;;;;;;9.35;90.82;99979.56;5041840;28;20311;-78
2022/09/29 00:21:18;;;;;;;0.93;0.93;;;;;;;9.34;91.08;99979.63;5055010;28;20308;-78
2022/09/29 00:23:45;;;;;;;1.00;0.90;;;;;;;9.32;91.10;99982.31;5058932;28;20340;-78
2022/09/29 00:26:19;;;;;;;0.95;0.95;;;;;;;9.31;91.04;99987.59;5043217;28;20127;-78
2022/09/29 00:28:57;;;;;;;1.08;1.00;;;;;;;9.29;91.02;99982.44;5049038;28;20071;-78
2022/09/29 00:31:30;;;;;;;1.38;1.27;;;;;;;9.29;90.98;99979.84;5055079;28;20056;-78
2022/09/29 00:33:56;;;;;;;1.30;1.20;;;;;;;9.28;90.85;99982.53;5042091;28;20036;-78
2022/09/29 00:36:23;;;;;;;1.55;1.13;;;;;;;9.26;90.74;99972.16;5042099;28;20028;-78
2022/09/29 00:38:53;;;;;;;1.23;1.08;;;;;;;9.26;90.61;99971.31;5058533;28;20051;-78
2022/09/29 00:41:23;;;;;;;1.30;1.20;;;;;;;9.24;90.65;99971.41;5075073;28;20063;-78
2022/09/29 00:44:00;;;;;;;1.48;0.98;;;;;;;9.23;90.71;99972.31;5076523;28;20024;-78
2022/09/29 00:46:48;;;;;;;0.90;0.90;;;;;;;9.22;90.73;99973.22;5054680;28;20112;-78
2022/09/29 00:49:26;;;;;;;1.07;1.00;;;;;;;9.21;90.67;99971.53;5058372;28;20032;-78
2022/09/29 00:52:00;;;;;;;1.00;1.00;;;;;;;9.20;90.54;99977.66;5058770;28;20232;-78
2022/09/29 00:54:30;;;;;;;2.33;1.10;;;;;;;9.18;90.48;99971.69;5076453;28;20020;-78
2022/09/29 00:56:58;;;;;;;0.95;0.80;;;;;;;9.17;90.46;99975.22;5065841;28;20017;-78
2022/09/29 00:59:29;;;;;;;1.00;1.00;;;;;;;9.16;90.66;99978.75;5056517;28;20047;-78
2022/09/29 01:05:13;;;;;;;1.00;1.00;;;;;;;9.13;90.59;99971.06;5075585;28;20052;-78
2022/09/29 01:07:40;;;;;;;1.15;1.15;;;;;;;9.13;90.26;99971.06;5060193;28;20257;-78
2022/09/29 01:10:06;;;;;;;1.42;1.33;;;;;;;9.11;90.33;99972.91;5057742;28;20359;-78
2022/09/29 01:12:32;;;;;;;1.45;1.35;;;;;;;9.11;90.37;99967.69;5042264;28;20037;-78
2022/09/29 01:14:59;;;;;;;1.23;1.23;;;;;;;9.09;90.47;99967.75;5042526;28;20133;-77
2022/09/29 01:17:25;;;;;;;1.33;1.23;;;;;;;9.09;90.49;99961.69;5059796;28;20028;-78
2022/09/29 01:19:59;;;;;;;1.80;1.70;;;;;;;9.08;90.30;99966.06;5042633;28;20064;-78
2022/09/29 01:22:40;;;;;;;1.60;1.50;;;;;;;9.08;90.59;99962.59;5061579;28;20032;-78
2022/09/29 01:25:32;;;;;;;1.70;1.60;;;;;;;9.07;90.49;99973.97;5080351;28;20043;-78
2022/09/29 01:28:22;;;;;;;1.52;1.42;;;;;;;9.06;90.36;99969.66;5062174;28;20021;-77
2022/09/29 01:31:01;;;;;;;1.40;1.30;;;;;;;9.04;90.20;99967.16;5061414;28;20056;-78
2022/09/29 01:33:29;;;;;;;1.60;1.50;;;;;;;9.03;90.11;99970.66;5079427;28;20031;-78
2022/09/29 01:36:30;;;;;;;1.70;1.60;;;;;;;9.02;90.44;99969.81;5061733;28;20047;-78
2022/09/29 01:38:58;;;;;;;2.05;1.95;;;;;;;9.02;90.49;99968.97;5074769;28;20059;-78
2022/09/29 01:41:42;;;;;;;2.08;1.70;;;;;;;9.02;90.34;99968.97;5060327;28;20271;-78
2022/09/29 01:44:17;;;;;;;1.70;1.60;;;;;;;9.00;90.30;99968.19;5058449;28;20107;-79
2022/09/29 01:46:52;;;;;;;1.90;1.80;;;;;;;9.00;90.55;99962.97;5060328;28;20029;-78
2022/09/29 01:49:21;;;;;;;1.90;1.80;;;;;;;8.99;90.39;99966.50;5046431;28;20263;-78
2022/09/29 01:51:56;;;;;;;1.85;1.75;;;;;;;8.98;90.51;99962.19;5060035;28;20017;-78
2022/09/29 01:54:28;;;;;;;2.45;1.88;;;;;;;8.97;90.42;99958.75;5059637;28;20032;-78
2022/09/29 01:57:09;;;;;;;2.00;1.90;;;;;;;8.95;90.35;99962.34;5056623;28;20020;-78
2022/09/29 01:59:50;;;;;;;2.25;2.10;;;;;;;8.96;90.32;99967.50;5057734;28;20056;-77
2022/09/29 02:02:29;;;;;;;1.90;1.80;;;;;;;8.95;90.44;99970.16;5059434;28;20194;-78
2022/09/29 02:05:00;;;;;;;2.05;1.95;;;;;;;8.94;90.29;99964.09;5042231;28;20027;-79
2022/09/29 02:07:41;;;;;;;1.92;1.83;;;;;;;8.94;90.47;99966.72;5042341;28;20025;-79
2022/09/29 02:10:29;;;;;;;2.53;2.33;;;;;;;8.93;90.49;99962.44;5042725;28;20028;-80
2022/09/29 02:12:56;;;;;;;2.15;2.05;;;;;;;8.92;90.46;99962.50;5042472;28;20095;-79
2022/09/29 02:15:27;;;;;;;2.10;2.00;;;;;;;8.91;90.59;99961.63;5055373;28;20309;-80
2022/09/29 02:18:00;;;;;;;2.30;2.13;;;;;;;8.91;90.41;99964.25;5080516;28;20020;-79
2022/09/29 02:20:25;;;;;;;2.28;2.08;;;;;;;8.90;90.79;99962.56;5061088;28;20032;-80
2022/09/29 02:22:50;;;;;;;2.33;2.20;;;;;;;8.90;90.55;99965.19;5045587;28;20024;-79
2022/09/29 02:25:18;;;;;;;2.50;2.40;;;;;;;8.89;90.72;99960.03;5062123;28;20232;-80
2022/09/29 02:27:46;;;;;;;2.50;2.30;;;;;;;8.89;90.84;99967.88;5080012;28;20040;-80
2022/09/29 02:30:11;;;;;;;2.50;2.30;;;;;;;8.87;90.66;99961.88;5066146;28;20082;-80
2022/09/29 02:32:37;;;;;;;3.10;2.90;;;;;;;8.87;90.73;99967.09;5058519;28;20033;-79
2022/09/29 02:35:06;;;;;;;2.70;2.50;;;;;;;8.87;90.62;99969.69;5025879;28;20029;-80
2022/09/29 02:37:58;;;;;;;2.72;2.53;;;;;;;8.85;90.55;99969.78;5059524;28;20029;-80
2022/09/29 02:40:32;;;;;;;2.83;2.63;;;;;;;8.86;90.80;99960.16;5079016;28;20025;-80
2022/09/29 02:43:32;;;;;;;2.88;2.67;;;;;;;8.84;90.53;99966.31;5061771;28;20024;-80
2022/09/29 02:46:06;;;;;;;2.72;2.53;;;;;;;8.82;90.72;99967.28;5057975;28;20020;-78
2022/09/29 02:48:52;;;;;;;2.72;2.60;;;;;;;8.83;90.47;99969.00;5054253;28;20036;-79
2022/09/29 02:51:28;;;;;;;2.97;2.78;;;;;;;8.81;90.68;99969.06;5041373;28;20021;-79
2022/09/29 02:54:12;;;;;;;2.78;2.58;;;;;;;8.80;90.70;99971.75;5041579;28;20132;-79
2022/09/29 02:56:55;;;;;;;3.17;2.97;;;;;;;8.78;90.46;99969.22;5041356;28;20033;-79
2022/09/29 02:59:32;;;;;;;3.08;2.88;;;;;;;8.79;90.56;99977.91;5051994;28;20016;-79
2022/09/29 03:01:57;;;;;;;3.45;2.80;;;;;;;8.77;90.66;99977.13;5056119;28;20273;-80
2022/09/29 03:04:26;;;;;;;3.08;2.88;;;;;;;8.75;90.55;99973.72;5043615;28;20351;-80
2022/09/29 03:06:52;;;;;;;3.10;2.90;;;;;;;8.75;90.59;99977.19;5061041;28;20236;-79
2022/09/29 03:09:18;;;;;;;3.35;3.15;;;;;;;8.74;90.71;99972.03;5060816;28;20024;-79
2022/09/29 03:11:44;;;;;;;3.35;3.05;;;;;;;8.74;90.67;99978.09;5061140;28;20484;-79
2022/09/29 03:14:10;;;;;;;3.40;3.15;;;;;;;8.73;90.63;99973.81;5078226;28;20027;-79
2022/09/29 03:16:36;;;;;;;3.22;3.03;;;;;;;8.72;90.57;99976.50;5043930;28;20031;-80
2022/09/29 03:19:04;;;;;;;2.80;2.60;;;;;;;8.71;90.54;99980.00;5061019;28;20336;-79
2022/09/29 03:21:30;;;;;;;3.10;2.90;;;;;;;8.69;90.47;99972.25;5060369;28;20020;-79
2022/09/29 03:23:55;;;;;;;2.75;2.55;;;;;;;8.69;90.53;99979.25;5035225;28;20075;-79
2022/09/29 03:26:22;;;;;;;3.30;3.08;;;;;;;8.68;90.60;99977.53;5055744;28;20063;-80
2022/09/29 03:28:48;;;;;;;2.92;2.72;;;;;;;8.67;90.22;99978.47;5061240;28;20035;-80
2022/09/29 03:31:14;;;;;;;2.88;2.67;;;;;;;8.64;90.52;99975.09;5060273;28;20064;-80
2022/09/29 03:33:39;;;;;;;3.17;2.97;;;;;;;8.64;90.19;99980.31;5056674;28;20354;-80
2022/09/29 03:36:07;;;;;;;2.97;2.67;;;;;;;8.64;90.50;99982.91;5040996;28;20332;-79
2022/09/29 03:38:33;;;;;;;3.25;3.05;;;;;;;8.62;90.54;99981.28;5043635;28;20013;-80
2022/09/29 03:40:58;;;;;;;3.05;2.85;;;;;;;8.61;90.37;99979.59;5040732;28;20025;-79
2022/09/29 03:43:24;;;;;;;2.90;2.70;;;;;;;8.61;90.42;99984.81;5023743;28;20024;-80
2022/09/29 03:45:50;;;;;;;3.05;2.85;;;;;;;8.59;90.34;99982.28;5024215;28;20021;-79
2022/09/29 03:48:17;;;;;;;2.85;2.65;;;;;;;8.60;90.54;99986.59;5023859;28;20074;-80
2022/09/29 03:50:44;;;;;;;2.83;2.63;;;;;;;8.59;90.37;99984.88;5041112;28;20064;-79
2022/09/29 03:53:10;;;;;;;2.92;2.72;;;;;;;8.58;90.24;99984.97;5057681;28;20193;-79
2022/09/29 03:55:35;;;;;;;3.20;3.00;;;;;;;8.57;90.47;99996.34;5040163;28;20079;-79
2022/09/29 03:58:01;;;;;;;3.08;2.88;;;;;;;8.56;90.55;99992.84;5043074;28;20223;-79
2022/09/29 04:00:26;;;;;;;3.05;2.85;;;;;;;8.56;90.51;99992.84;5045778;28;20039;-79
2022/09/29 04:02:55;;;;;;;3.40;3.20;;;;;;;8.54;90.42;99986.84;5043279;28;20354;-80
2022/09/29 04:05:20;;;;;;;3.35;3.15;;;;;;;8.53;90.51;99995.63;5059860;28;20066;-79
2022/09/29 04:07:46;;;;;;;3.00;2.80;;;;;;;8.53;90.40;99992.16;5060275;28;20033;-79
2022/09/29 04:10:12;;;;;;;2.90;2.70;;;;;;;8.51;90.16;99989.59;5059149;28;20085;-79
2022/09/29 04:12:37;;;;;;;3.55;2.97;;;;;;;8.52;90.42;99993.91;5056570;28;20039;-80
2022/09/29 04:15:03;;;;;;;3.17;2.97;;;;;;;8.50;90.22;100003.59;5056820;28;20021;-79
2022/09/29 04:17:29;;;;;;;3.38;3.17;;;;;;;8.50;90.31;99995.75;5023112;28;20025;-79
2022/09/29 04:19:54;;;;;;;4.72;4.32;;;;;;;8.49;90.55;99995.81;5056646;28;20029;-79
2022/09/29 04:22:20;;;;;;;3.50;3.30;;;;;;;8.47;90.33;99998.50;5039530;28;20024;-79
2022/09/29 04:24:49;;;;;;;3.60;3.40;;;;;;;8.47;90.69;100001.09;5059605;28;20338;-79
2022/09/29 04:27:15;;;;;;;;;;;;;;;8.45;90.46;99998.56;5046683;28;20041;-79
2022/09/29 04:29:40;;;;;;;3.70;3.42;;;;;;;8.45;90.35;100001.16;5041789;28;20243;-79
2022/09/29 04:32:06;;;;;;;3.55;3.22;;;;;;;8.44;90.54;99998.63;5039635;28;20032;-79
2022/09/29 04:34:32;;;;;;;3.15;2.95;;;;;;;8.42;90.38;100003.06;5042413;28;20283;-79
2022/09/29 04:36:58;;;;;;;3.65;3.35;;;;;;;8.41;90.57;100004.81;5043025;28;20107;-80
2022/09/29 04:39:24;;;;;;;3.40;3.10;;;;;;;8.41;90.59;100007.41;5059227;28;20047;-79
2022/09/29 04:41:50;;;;;;;3.35;3.15;;;;;;;8.39;90.53;100013.63;5042962;28;20055;-79
2022/09/29 04:44:15;;;;;;;3.65;3.40;;;;;;;8.39;90.77;100016.25;5059412;28;20055;-79
2022/09/29 04:46:41;;;;;;;3.72;3.53;;;;;;;8.39;90.56;100021.47;5040921;28;20036;-79
2022/09/29 04:49:06;;;;;;;3.58;3.20;;;;;;;8.37;90.37;100026.75;5039650;28;20025;-79
2022/09/29 04:51:32;;;;;;;3.40;3.13;;;;;;;8.37;90.52;100028.50;5031961;28;20056;-79
2022/09/29 04:53:58;;;;;;;2.95;2.75;;;;;;;8.36;90.58;100027.63;5039478;28;20041;-79
2022/09/29 04:56:23;;;;;;;3.10;2.90;;;;;;;8.35;90.44;100035.53;5057150;28;20035;-80
2022/09/29 04:58:49;;;;;;;3.20;3.00;;;;;;;8.34;90.53;100039.06;5023199;28;20044;-79
2022/09/29 05:01:15;;;;;;;3.25;3.05;;;;;;;8.33;90.47;100040.84;5016577;28;20020;-79
2022/09/29 05:03:41;;;;;;;3.60;3.40;;;;;;;8.32;90.56;100033.91;5042743;28;20040;-80
2022/09/29 05:06:08;;;;;;;3.45;3.20;;;;;;;8.32;90.46;100043.50;5077641;28;20061;-79
2022/09/29 05:08:34;;;;;;;3.13;2.92;;;;;;;8.31;90.58;100042.66;5037377;28;20033;-79
2022/09/29 05:11:07;;;;;;;3.53;3.33;;;;;;;8.30;90.37;100046.19;5009041;28;20228;-79
2022/09/29 05:13:34;;;;;;;4.20;3.90;;;;;;;8.30;90.60;100046.19;5076725;28;20032;-79
2022/09/29 05:16:00;;;;;;;4.43;4.13;;;;;;;8.29;90.46;100047.09;5076986;28;20077;-79
2022/09/29 05:18:25;;;;;;;3.75;3.55;;;;;;;8.28;90.67;100058.44;5032886;28;20100;-80
2022/09/29 05:20:51;;;;;;;3.60;3.30;;;;;;;8.27;90.47;100051.53;5045205;28;20055;-79
2022/09/29 05:23:16;;;;;;;4.28;3.95;;;;;;;8.26;90.61;100061.13;5039009;28;20037;-79
2022/09/29 05:25:42;;;;;;;3.83;3.53;;;;;;;8.25;90.68;100062.03;5038826;28;20285;-79
2022/09/29 05:28:09;;;;;;;3.80;3.60;;;;;;;8.25;90.46;100066.41;5035529;28;20033;-79
2022/09/29 05:30:35;;;;;;;4.00;3.70;;;;;;;8.23;90.66;100058.63;5068107;28;20046;-79
2022/09/29 05:33:00;;;;;;;3.83;3.63;;;;;;;8.23;90.72;100065.63;5042368;28;20040;-80
2022/09/29 05:35:26;;;;;;;3.70;3.50;;;;;;;8.22;90.60;100064.78;5076635;28;20338;-79
2022/09/29 05:37:52;;;;;;;3.72;3.50;;;;;;;8.21;90.75;100065.69;5040940;28;20021;-79
2022/09/29 05:40:18;;;;;;;4.32;4.03;;;;;;;8.20;90.58;100065.75;5071969;28;20032;-79
2022/09/29 05:42:44;;;;;;;3.80;3.55;;;;;;;8.19;90.60;100071.91;5055465;28;20028;-79
2022/09/29 05:45:10;;;;;;;3.45;3.25;;;;;;;8.18;90.38;100068.41;5056489;28;20039;-79
2022/09/29 05:47:39;;;;;;;4.50;4.20;;;;;;;8.16;90.49;100059.81;5062094;28;20032;-79
2022/09/29 05:50:05;;;;;;;3.33;3.05;;;;;;;8.15;90.29;100068.56;5058849;28;20235;-79
2022/09/29 05:52:31;;;;;;;3.50;3.30;;;;;;;8.14;90.49;100074.69;5042088;28;20036;-79
2022/09/29 05:54:56;;;;;;;3.83;3.63;;;;;;;8.13;90.34;100065.19;5042657;28;20032;-79
2022/09/29 05:57:22;;;;;;;3.42;3.22;;;;;;;8.12;90.52;100073.91;5044017;28;20117;-80
2022/09/29 05:59:47;;;;;;;3.30;3.10;;;;;;;8.11;90.48;100074.81;5035765;28;20025;-79
2022/09/29 06:02:12;;;;;;;3.58;3.38;;;;;;;8.10;90.24;100075.75;5060385;28;20035;-79
2022/09/29 06:04:38;;;;;;;3.45;3.15;;;;;;;8.09;90.46;100074.03;5076089;28;20116;-80
2022/09/29 06:07:03;;;;;;;4.60;3.70;;;;;;;8.08;90.49;100073.19;5042007;28;20041;-80
2022/09/29 06:09:29;;;;;;;3.95;3.65;;;;;;;8.09;90.49;100074.03;5045039;28;20024;-79
2022/09/29 06:11:54;;;;;;;4.22;3.92;;;;;;;8.07;90.29;100078.47;5028995;28;20040;-79
2022/09/29 06:14:20;;;;;;;3.78;3.30;;;;;;;8.06;90.38;100080.25;5045413;28;20062;-79
2022/09/29 06:16:45;;;;;;;3.75;3.45;;;;;;;8.06;90.59;100082.84;5045394;28;20365;-80
2022/09/29 06:19:12;;;;;;;4.30;4.00;;;;;;;8.06;90.44;100082.84;5045519;28;20104;-79
2022/09/29 06:21:38;;;;;;;4.25;3.95;;;;;;;8.06;90.39;100085.44;5042051;28;20037;-80
2022/09/29 06:24:06;;;;;;;4.60;4.30;;;;;;;8.06;90.45;100084.63;5028334;28;20044;-80
2022/09/29 06:26:31;;;;;;;4.90;4.50;;;;;;;8.05;90.51;100082.91;5044948;28;20122;-79
2022/09/29 06:28:57;;;;;;;4.22;3.88;;;;;;;8.04;90.61;100089.88;5067279;28;20033;-79
2022/09/29 06:31:26;;;;;;;4.25;3.95;;;;;;;8.05;90.94;100090.72;5044735;28;20064;-80
2022/09/29 06:33:52;;;;;;;4.65;4.35;;;;;;;8.05;90.92;100099.38;5061793;28;20025;-80
2022/09/29 06:39:09;;;;;;;6.00;4.78;;;;;;;8.07;90.94;100107.16;5079284;28;20047;-79
2022/09/29 06:41:35;;;;;;;6.00;5.20;;;;;;;8.07;91.30;100109.75;5044433;28;20236;-80
2022/09/29 06:44:01;;;;;;;5.65;5.00;;;;;;;8.07;91.27;100108.00;5061468;28;20020;-79
2022/09/29 06:46:27;;;;;;;7.15;5.22;;;;;;;8.07;91.30;100110.59;5060675;28;20021;-79
2022/09/29 06:48:53;;;;;;;5.97;5.43;;;;;;;8.08;91.55;100108.88;5036497;28;20025;-79
2022/09/29 06:51:21;;;;;;;5.20;4.82;;;;;;;8.09;91.51;100115.75;5035592;28;20100;-79
2022/09/29 06:53:47;;;;;;;5.85;5.35;;;;;;;8.10;91.64;100112.25;5048138;28;20547;-79
2022/09/29 06:56:12;;;;;;;7.53;6.00;;;;;;;8.10;91.89;100116.63;5040158;28;20028;-80
2022/09/29 06:58:38;;;;;;;6.60;6.00;;;;;;;8.10;91.86;100127.91;5071392;28;20033;-79
2022/09/29 07:01:04;;;;;;;7.15;6.43;;;;;;;8.11;92.02;100121.75;5041779;28;20201;-79
2022/09/29 07:03:31;;;;;;;7.75;7.05;;;;;;;8.11;92.03;100121.75;5051856;28;20050;-80
2022/09/29 07:06:00;;;;;;;7.97;7.28;;;;;;;8.13;92.26;100126.91;5051692;28;20028;-79
2022/09/29 07:08:26;;;;;;;9.20;8.27;;;;;;;8.14;92.54;100126.00;5064250;28;20304;-79
2022/09/29 07:10:51;;;;;;;7.82;7.10;;;;;;;8.15;92.80;100127.69;5050263;28;20099;-80
2022/09/29 07:13:17;;;;;;;7.90;7.20;;;;;;;8.15;92.74;100119.88;5033464;28;20107;-80
2022/09/29 07:15:42;;;;;;;9.48;8.50;;;;;;;8.16;93.17;100132.00;5032658;28;20694;-79
2022/09/29 07:18:08;;;;;;;8.38;7.30;;;;;;;8.20;93.20;100133.56;5035176;28;20263;-79
2022/09/29 07:20:34;;;;;;;8.65;7.70;;;;;;;8.20;93.36;100133.56;5068071;28;20040;-80
2022/09/29 07:23:00;;;;;;;8.30;7.10;;;;;;;8.22;93.51;100139.56;5025393;28;20259;-80
2022/09/29 07:25:25;;;;;;;8.80;7.97;;;;;;;8.23;93.58;100133.44;5059528;28;20036;-80
2022/09/29 07:27:51;;;;;;;9.75;8.80;;;;;;;8.25;93.53;100145.50;5057637;28;20036;-79
2022/09/29 07:30:17;;;;;;;10.05;8.30;;;;;;;8.26;94.14;100146.38;5030786;28;20044;-79
2022/09/29 07:32:45;;;;;;;9.30;8.50;;;;;;;8.27;94.16;100155.88;5049008;28;20098;-79
2022/09/29 07:35:10;;;;;;;8.80;7.90;;;;;;;8.29;94.24;100148.00;5039267;28;20075;-80
2022/09/29 07:37:36;;;;;;;8.35;7.65;;;;;;;8.30;94.43;100149.69;5043876;28;20021;-79
2022/09/29 07:40:02;;;;;;;8.57;7.78;;;;;;;8.31;94.51;100149.59;5025315;28;20037;-80
2022/09/29 07:42:31;;;;;;;9.63;8.73;;;;;;;8.34;94.52;100156.47;5044363;28;20067;-80
2022/09/29 07:44:56;;;;;;;8.73;7.93;;;;;;;8.35;94.53;100159.03;5044153;28;20298;-79
2022/09/29 07:47:22;;;;;;;9.75;8.75;;;;;;;8.36;95.08;100157.25;5050926;28;20038;-79
2022/09/29 07:49:47;;;;;;;9.35;8.20;;;;;;;8.37;94.85;100162.41;5036314;28;20095;-79
2022/09/29 07:52:14;;;;;;;9.43;8.52;;;;;;;8.39;95.38;100157.13;5047645;28;20033;-79
2022/09/29 07:54:39;;;;;;;10.20;9.10;;;;;;;8.40;95.36;100162.28;5055213;28;20359;-79
2022/09/29 07:57:05;;;;;;;9.45;8.43;;;;;;;8.42;95.34;100168.31;5048852;28;20057;-79
2022/09/29 07:59:30;;;;;;;9.63;8.82;;;;;;;8.44;95.61;100176.06;5047777;28;20059;-79
2022/09/29 08:01:56;;;;;;;12.02;8.73;;;;;;;8.47;95.76;100182.94;5032676;28;20297;-80
2022/09/29 08:04:22;;;;;;;9.32;8.52;;;;;;;8.47;95.77;100175.94;5049799;28;20033;-80
2022/09/29 08:06:47;;;;;;;9.27;8.38;;;;;;;8.50;95.95;100181.03;5036899;28;20363;-79
2022/09/29 08:09:13;;;;;;;9.05;8.15;;;;;;;8.52;96.18;100184.44;5022932;28;20104;-79
2022/09/29 08:11:41;;;;;;;10.55;8.70;;;;;;;8.54;96.06;100190.44;5043526;28;20055;-80
2022/09/29 08:14:09;;;;;;;10.20;9.20;;;;;;;8.56;96.11;100190.38;5055840;28;20399;-80
2022/09/29 08:16:35;;;;;;;9.25;8.35;;;;;;;8.58;96.22;100197.19;5053427;28;20354;-80
2022/09/29 08:19:02;;;;;;;9.27;8.25;;;;;;;8.60;96.32;100198.00;5038318;28;20351;-79
2022/09/29 08:21:28;;;;;;;9.02;8.13;;;;;;;8.62;96.28;100201.41;5055854;28;20029;-79
2022/09/29 08:23:54;;;;;;;9.13;8.32;;;;;;;8.63;96.41;100203.09;5056698;28;20032;-79
2022/09/29 08:26:21;;;;;;;11.02;9.93;;;;;;;8.67;96.62;100203.78;5053721;28;20033;-80
2022/09/29 08:28:47;;;;;;;8.50;7.63;;;;;;;8.68;96.75;100209.84;5050191;28;20045;-79
2022/09/29 08:31:19;;;;;;;9.68;8.77;;;;;;;8.70;96.86;100213.28;5055409;28;20121;-80
2022/09/29 08:33:44;;;;;;;9.02;8.25;;;;;;;8.72;96.97;100214.06;5055368;28;20056;-80
2022/09/29 08:36:16;;;;;;;8.77;7.97;;;;;;;8.74;96.87;100223.50;5038714;28;20021;-79
2022/09/29 08:38:49;;;;;;;12.20;10.20;;;;;;;8.76;97.20;100226.91;5042858;28;20089;-80
2022/09/29 08:41:27;;;;;;;10.43;9.32;;;;;;;8.78;97.04;100229.44;5054179;28;20332;-79
2022/09/29 08:43:59;;;;;;;13.13;10.40;;;;;;;8.81;97.82;100234.53;5053445;28;20021;-80
2022/09/29 08:46:31;;;;;;;11.57;10.32;;;;;;;8.85;98.41;100238.72;5054919;28;20036;-79
2022/09/29 08:49:02;;;;;;;12.35;10.48;;;;;;;8.89;98.63;100242.88;5053089;28;20064;-80
2022/09/29 08:51:36;;;;;;;11.13;10.00;;;;;;;8.90;98.58;100249.81;5048819;28;20033;-79
2022/09/29 08:54:13;;;;;;;11.02;9.93;;;;;;;8.92;98.65;100255.81;5046124;28;20023;-79
2022/09/29 08:56:38;;;;;;;13.38;9.93;;;;;;;8.95;98.90;100252.22;5054802;28;20321;-79
2022/09/29 08:59:03;;;;;;;11.32;10.02;;;;;;;8.98;99.25;100260.75;5022016;28;20025;-79
2022/09/29 09:01:54;;;;;;;11.32;10.20;;;;;;;8.99;99.18;100257.25;5035331;28;20032;-79
2022/09/29 09:04:51;;;;;;;11.50;10.40;;;;;;;9.02;99.57;100261.47;5047272;28;20092;-80
2022/09/29 09:07:34;;;;;;;9.13;8.27;;;;;;;9.03;99.41;100258.81;5044203;28;20021;-80
2022/09/29 09:10:11;;;;;;;13.20;8.07;;;;;;;9.06;99.64;100260.47;5046780;28;20305;-80
2022/09/29 09:13:11;;;;;;;7.88;7.18;;;;;;;9.08;99.79;100258.63;5049676;28;20289;-79
2022/09/29 09:15:55;;;;;;;6.35;5.85;;;;;;;9.10;99.70;100263.78;5044804;28;20027;-79
2022/09/29 09:18:38;;;;;;;6.32;5.75;;;;;;;9.09;98.98;100265.53;5047666;28;20025;-80
2022/09/29 09:21:17;;;;;;;5.97;5.55;;;;;;;9.12;98.39;100268.00;5070812;28;20472;-80
2022/09/29 09:23:45;;;;;;;6.60;5.97;;;;;;;9.15;98.59;100264.41;5032288;28;20037;-80
2022/09/29 09:26:12;;;;;;;11.70;8.38;;;;;;;9.18;98.97;100269.50;5054214;28;20040;-80
2022/09/29 09:28:47;;;;;;;7.95;7.25;;;;;;;9.22;99.49;100265.84;5047515;28;20047;-80
2022/09/29 09:31:25;;;;;;;8.07;7.05;;;;;;;9.25;99.80;100264.88;5053919;28;20549;-80
2022/09/29 09:34:43;;;;;;;11.25;6.88;;;;;;;9.28;99.67;100268.19;5058649;28;20428;-79
2022/09/29 09:37:20;;;;;;;8.98;8.18;;;;;;;9.32;99.89;100261.91;5033674;28;20039;-80
2022/09/29 09:40:01;;;;;;;9.45;7.68;;;;;;;9.36;100.00;100263.47;5057565;28;20020;-80
2022/09/29 09:42:31;;;;;;;10.10;9.05;;;;;;;9.39;100.00;100267.72;5049360;28;20062;-79
2022/09/29 09:45:15;;;;;;;8.85;7.63;;;;;;;9.43;99.86;100265.81;5054378;28;20012;-79
2022/09/29 09:47:49;;;;;;;9.65;8.73;;;;;;;9.48;100.00;100267.31;5059748;28;20332;-79
2022/09/29 09:50:18;;;;;;;8.55;7.75;;;;;;;9.54;100.00;100274.84;5057035;28;20419;-79
2022/09/29 09:52:55;;;;;;;9.73;8.77;;;;;;;9.60;100.00;100271.09;5055552;28;20017;-79
2022/09/29 09:55:26;;;;;;;10.52;8.93;;;;;;;9.65;100.00;100274.38;5069473;28;20029;-79
2022/09/29 09:58:03;;;;;;;9.68;8.68;;;;;;;9.70;100.00;100267.16;5059103;28;20060;-79
2022/09/29 10:00:40;;;;;;;12.60;9.52;;;;;;;9.77;100.00;100280.81;5050204;28;20524;-79
2022/09/29 10:03:08;;;;;;;10.93;9.00;;;;;;;9.82;100.00;100273.56;5056255;28;20317;-79
2022/09/29 10:05:37;;;;;;;14.87;9.10;;;;;;;9.89;100.00;100275.00;5056214;28;20316;-79
2022/09/29 10:08:05;;;;;;;8.23;7.53;;;;;;;9.95;100.00;100274.72;5056786;28;20283;-79
2022/09/29 10:10:30;;;;;;;7.93;7.25;;;;;;;10.00;100.00;100266.63;5057280;28;20029;-79
2022/09/29 10:13:04;;;;;;;8.23;6.72;;;;;;;10.05;99.77;100272.50;5035339;28;20021;-79
2022/09/29 10:15:36;;;;;;;11.02;6.82;;;;;;;10.11;99.32;100276.59;5055135;28;20328;-80
2022/09/29 10:18:16;;;;;;;11.35;7.35;;;;;;;10.18;99.43;100280.63;5057573;28;20032;-79
2022/09/29 10:20:42;;;;;;;6.63;6.13;;;;;;;10.23;99.12;100272.56;5057079;28;20040;-79
2022/09/29 10:23:29;;;;;;;6.10;5.60;;;;;;;10.27;98.48;100276.72;5056116;28;20348;-79
2022/09/29 10:26:03;;;;;;;5.95;5.45;;;;;;;10.31;98.25;100279.13;5056429;28;20547;-79
2022/09/29 10:28:49;;;;;;;7.72;5.82;;;;;;;10.35;98.95;100282.44;5057160;28;20028;-79
2022/09/29 10:31:35;;;;;;;5.28;4.88;;;;;;;10.40;98.80;100279.63;5040748;28;20406;-79
2022/09/29 10:34:10;;;;;;;9.73;5.88;;;;;;;10.42;98.61;100281.22;5036199;28;20176;-79
2022/09/29 10:36:54;;;;;;;5.57;5.07;;;;;;;10.46;98.51;100280.19;5032101;28;20096;-79
2022/09/29 10:39:32;;;;;;;4.82;4.43;;;;;;;10.48;96.79;100283.56;5030079;28;20116;-79
2022/09/29 10:41:57;;;;;;;6.40;4.22;;;;;;;10.52;95.43;100285.09;5037218;28;20075;-80
2022/09/29 10:44:23;;;;;;;5.40;4.22;;;;;;;10.58;95.42;100289.19;5036874;28;20037;-79
2022/09/29 10:46:57;;;;;;;4.47;4.07;;;;;;;10.65;94.52;100300.22;5037046;28;20045;-79
2022/09/29 10:49:26;;;;;;;4.57;4.20;;;;;;;10.69;93.95;100291.28;5035967;28;20048;-79
2022/09/29 10:52:05;;;;;;;5.57;3.85;;;;;;;10.76;93.99;100290.03;5028272;28;20274;-79
2022/09/29 10:54:35;;;;;;;3.78;3.40;;;;;;;10.82;91.86;100284.47;5020883;28;20218;-79
2022/09/29 10:57:12;;;;;;;4.50;4.10;;;;;;;10.89;91.03;100290.25;5038910;28;20029;-79
2022/09/29 10:59:46;;;;;;;4.45;4.10;;;;;;;10.95;91.48;100296.06;5036614;28;20123;-79
2022/09/29 11:02:37;;;;;;;4.40;4.00;;;;;;;11.02;91.50;100293.09;5036087;28;20328;-79
2022/09/29 11:05:15;;;;;;;3.53;3.22;;;;;;;11.04;88.52;100297.38;5025509;28;20370;-79
2022/09/29 11:07:47;;;;;;;6.43;2.78;;;;;;;11.06;87.74;100297.25;5036564;28;20017;-79
2022/09/29 11:10:34;;;;;;;3.08;2.78;;;;;;;11.06;86.74;100300.75;5036154;28;20067;-79
2022/09/29 11:13:23;;;;;;;3.35;3.15;;;;;;;11.07;86.91;100302.44;5037244;28;20029;-79
2022/09/29 11:15:49;;;;;;;;;;;;;;;11.08;86.42;100303.28;5032289;28;20048;-79
2022/09/29 11:18:19;;;;;;;3.28;2.95;;;;;;;11.12;86.56;100304.81;5028581;28;19909;-79
2022/09/29 11:20:52;;;;;;;3.67;2.97;;;;;;;11.15;88.38;100315.13;5035854;28;20068;-80
2022/09/29 11:23:34;;;;;;;2.97;2.78;;;;;;;11.16;87.59;100318.63;5031257;28;20030;-79
2022/09/29 11:26:15;;;;;;;2.95;2.75;;;;;;;11.15;87.16;100309.88;5030022;28;20272;-79
2022/09/29 11:29:06;;;;;;;2.60;2.40;;;;;;;11.14;87.07;100321.31;5032167;28;20053;-79
2022/09/29 11:31:42;;;;;;;3.83;2.30;;;;;;;11.12;87.10;100316.16;5046664;28;20049;-80
2022/09/29 11:34:19;;;;;;;3.25;2.25;;;;;;;11.11;86.68;100318.84;5056061;28;20037;-79
2022/09/29 11:37:01;;;;;;;2.28;2.08;;;;;;;11.10;86.38;100323.25;5054274;28;20076;-79
2022/09/29 11:39:30;;;;;;;3.50;2.35;;;;;;;11.09;86.20;100316.28;5055142;28;20067;-79
2022/09/29 11:42:23;;;;;;;3.72;2.30;;;;;;;11.09;86.17;100316.28;5056343;28;20067;-79
2022/09/29 11:44:57;;;;;;;6.18;2.65;;;;;;;11.14;86.36;100326.56;5043303;28;20434;-79
2022/09/29 11:47:47;;;;;;;4.60;2.30;;;;;;;11.18;86.61;100330.69;5050370;28;20403;-80
2022/09/29 11:50:20;;;;;;;2.15;1.95;;;;;;;11.23;86.42;100325.25;5050266;28;20037;-79
2022/09/29 11:53:07;;;;;;;2.22;1.90;;;;;;;11.27;85.09;100324.16;5049907;28;20229;-79
2022/09/29 11:55:50;;;;;;;1.88;1.77;;;;;;;11.32;84.75;100328.22;5055262;28;20029;-79
2022/09/29 11:58:37;;;;;;;1.85;1.75;;;;;;;11.37;85.29;100335.00;5052126;28;20040;-79